Huntingdon, United Kingdom
Current Conditions -  °F | °C
As of 5:50 AM on Sunday 26 Oct 2014 (Local Time) from EGXT Reporting Station
Few Clouds Few Clouds  
Wind Chill: 52°   Ceiling: Unl
Heat Index: 52°   Visibility: 6mi
Dew Point: 46°   Wind: 15mph
Humidity: 82%   Direction: 210°SSW
Pressure: 30.03"   Gusts: NA
Location:  52.33°N, 0.19°W
Report Text: EGXT 260450Z AUTO 21013KT 9999 // FEW240/// 11/08 Q1017
Loading
Personal Weather Stations






























Interactive Weather Map
Tropical Storm Tracking
New forecast layout! Learn more

10-Day Weather Forecast

Advertisements
Track Severe Weather on mobile